createdAt,value
2019-03-10T00:01:16.896Z,1.10
2019-03-10T00:03:23.457Z,1.13
2019-03-10T00:05:30.223Z,1.13
2019-03-10T00:07:36.385Z,1.20
2019-03-10T00:09:42.853Z,1.10
2019-03-10T00:11:49.146Z,1.87
2019-03-10T00:13:58.553Z,1.37
2019-03-10T00:16:06.263Z,1.20
2019-03-10T00:18:20.136Z,1.47
2019-03-10T00:20:29.654Z,1.70
2019-03-10T00:22:36.314Z,1.63
2019-03-10T00:24:44.994Z,1.47
2019-03-10T00:26:51.158Z,1.37
2019-03-10T00:28:57.713Z,1.00
2019-03-10T00:31:03.987Z,1.10
2019-03-10T00:33:10.144Z,1.20
2019-03-10T00:35:16.311Z,1.20
2019-03-10T00:37:22.555Z,1.07
2019-03-10T00:39:38.760Z,1.00
2019-03-10T00:42:12.073Z,0.90
2019-03-10T00:44:44.840Z,1.20
2019-03-10T00:47:19.770Z,0.73
2019-03-10T00:49:56.020Z,0.60
2019-03-10T00:52:30.537Z,0.83
2019-03-10T00:54:36.701Z,0.83
2019-03-10T00:56:42.867Z,1.70
2019-03-10T00:58:49.026Z,0.90
2019-03-10T01:00:55.174Z,0.90
2019-03-10T01:03:01.387Z,1.37
2019-03-10T01:05:09.605Z,1.13
2019-03-10T01:07:15.910Z,1.10
2019-03-10T01:09:22.999Z,0.93
2019-03-10T01:11:29.452Z,0.87
2019-03-10T01:13:36.623Z,1.13
2019-03-10T01:15:43.501Z,2.23
2019-03-10T01:17:52.118Z,1.50
2019-03-10T01:19:58.970Z,1.03
2019-03-10T01:22:05.152Z,1.20
2019-03-10T01:24:12.414Z,1.00
2019-03-10T01:26:20.413Z,1.00
2019-03-10T01:28:30.145Z,0.90
2019-03-10T01:30:40.823Z,1.13
2019-03-10T01:33:14.951Z,1.17
2019-03-10T01:35:25.910Z,1.20
2019-03-10T01:37:32.075Z,1.00
2019-03-10T01:39:38.239Z,1.27
2019-03-10T01:41:44.502Z,0.53
2019-03-10T01:43:50.604Z,1.07
2019-03-10T01:45:56.827Z,0.73
2019-03-10T01:48:02.985Z,1.27
2019-03-10T01:50:13.343Z,0.90
2019-03-10T01:52:19.590Z,1.17
2019-03-10T01:54:25.804Z,1.17
2019-03-10T01:56:32.213Z,1.20
2019-03-10T01:58:38.271Z,0.90
2019-03-10T02:00:44.439Z,1.33
2019-03-10T02:02:50.687Z,0.97
2019-03-10T02:04:56.645Z,0.83
2019-03-10T02:07:02.796Z,0.90
2019-03-10T02:09:09.614Z,1.30
2019-03-10T02:11:15.949Z,1.07
2019-03-10T02:13:23.101Z,1.00
2019-03-10T02:15:29.466Z,0.87
2019-03-10T02:17:35.635Z,0.70
2019-03-10T02:19:41.786Z,1.33
2019-03-10T02:21:48.052Z,1.30
2019-03-10T02:23:54.212Z,1.23
2019-03-10T02:26:00.662Z,1.10
2019-03-10T02:28:06.826Z,1.40
2019-03-10T02:30:18.460Z,1.43
2019-03-10T02:32:25.070Z,1.17
2019-03-10T02:34:31.160Z,1.73
2019-03-10T02:36:37.204Z,1.57
2019-03-10T02:38:43.364Z,2.37
2019-03-10T02:40:49.639Z,1.10
2019-03-10T02:42:55.904Z,1.70
2019-03-10T02:45:02.372Z,1.57
2019-03-10T02:47:08.964Z,1.80
2019-03-10T02:49:15.367Z,2.03
2019-03-10T02:51:21.524Z,1.17
2019-03-10T02:53:27.683Z,1.60
2019-03-10T02:55:36.650Z,1.97
2019-03-10T02:57:47.417Z,1.47
2019-03-10T02:59:53.844Z,1.80
2019-03-10T03:02:00.113Z,2.40
2019-03-10T03:04:06.454Z,2.97
2019-03-10T03:06:13.174Z,1.80
2019-03-10T03:08:19.616Z,1.63
2019-03-10T03:10:26.915Z,2.03
2019-03-10T03:12:33.164Z,1.77
2019-03-10T03:14:40.053Z,1.83
2019-03-10T03:16:46.199Z,1.50
2019-03-10T03:18:52.586Z,1.77
2019-03-10T03:20:59.227Z,1.60
2019-03-10T03:23:05.697Z,1.87
2019-03-10T03:25:13.480Z,1.50
2019-03-10T03:27:19.753Z,1.37
2019-03-10T03:29:27.105Z,1.30
2019-03-10T03:31:33.391Z,1.50
2019-03-10T03:33:48.455Z,1.03
2019-03-10T03:36:03.144Z,1.10
2019-03-10T03:38:12.175Z,1.27
2019-03-10T03:40:19.148Z,0.87
2019-03-10T03:42:26.920Z,1.17
2019-03-10T03:44:33.897Z,0.87
2019-03-10T03:46:40.153Z,1.40
2019-03-10T03:48:46.404Z,1.00
2019-03-10T03:50:54.104Z,1.60
2019-03-10T03:53:00.463Z,1.13
2019-03-10T03:55:07.666Z,1.07
2019-03-10T03:57:13.995Z,1.73
2019-03-10T03:59:20.152Z,1.40
2019-03-10T04:01:31.939Z,0.73
2019-03-10T04:03:37.995Z,1.70
2019-03-10T04:05:53.342Z,1.10
2019-03-10T04:07:58.117Z,0.90
2019-03-10T04:10:09.407Z,1.00
2019-03-10T04:12:15.896Z,1.50
2019-03-10T04:14:22.270Z,1.80
2019-03-10T04:16:28.684Z,1.67
2019-03-10T04:18:35.241Z,1.40
2019-03-10T04:20:41.388Z,1.57
2019-03-10T04:22:47.642Z,1.40
2019-03-10T04:24:53.874Z,1.10
2019-03-10T04:26:59.855Z,1.70
2019-03-10T04:29:06.026Z,1.40
2019-03-10T04:31:12.378Z,1.30
2019-03-10T04:33:23.763Z,1.20
2019-03-10T04:35:31.560Z,1.47
2019-03-10T04:37:37.951Z,1.30
2019-03-10T04:39:48.912Z,1.10
2019-03-10T04:41:56.307Z,1.40
2019-03-10T04:44:02.524Z,0.90
2019-03-10T04:46:08.594Z,1.10
2019-03-10T04:48:14.845Z,2.20
2019-03-10T04:50:21.003Z,2.03
2019-03-10T04:52:27.021Z,2.33
2019-03-10T04:54:44.524Z,1.23
2019-03-10T04:56:52.077Z,1.37
2019-03-10T04:58:58.224Z,0.90
2019-03-10T05:01:04.392Z,1.03
2019-03-10T05:03:10.537Z,1.40
2019-03-10T05:05:17.941Z,1.13
2019-03-10T05:07:23.966Z,1.23
2019-03-10T05:09:30.149Z,1.60
2019-03-10T05:11:36.952Z,1.33
2019-03-10T05:13:43.205Z,1.07
2019-03-10T05:15:51.316Z,1.17
2019-03-10T05:17:57.408Z,1.60
2019-03-10T05:20:04.235Z,1.07
2019-03-10T05:22:10.479Z,1.57
2019-03-10T05:24:16.908Z,1.30
2019-03-10T05:26:24.425Z,1.70
2019-03-10T05:28:33.774Z,1.67
2019-03-10T05:30:40.256Z,1.70
2019-03-10T05:32:46.697Z,1.37
2019-03-10T05:34:54.524Z,1.57
2019-03-10T05:37:00.639Z,1.70
2019-03-10T05:39:07.932Z,1.57
2019-03-10T05:41:14.212Z,2.13
2019-03-10T05:43:20.355Z,1.67
2019-03-10T05:45:26.635Z,1.67
2019-03-10T05:47:33.086Z,1.37
2019-03-10T05:49:39.593Z,1.70
2019-03-10T05:51:46.256Z,1.97
2019-03-10T05:53:52.782Z,2.07
2019-03-10T05:55:59.134Z,2.47
2019-03-10T05:58:05.513Z,2.43
2019-03-10T06:00:12.050Z,1.83
2019-03-10T06:02:18.328Z,1.73
2019-03-10T06:04:24.574Z,1.23
2019-03-10T06:06:30.745Z,2.57
2019-03-10T06:08:36.898Z,1.93
2019-03-10T06:10:42.955Z,2.60
2019-03-10T06:12:49.224Z,1.80
2019-03-10T06:14:55.371Z,2.27
2019-03-10T06:17:01.426Z,1.90
2019-03-10T06:19:07.584Z,3.20
2019-03-10T06:21:13.637Z,1.73
2019-03-10T06:23:19.683Z,3.20
2019-03-10T06:25:25.842Z,1.40
2019-03-10T06:27:32.005Z,2.27
2019-03-10T06:29:37.998Z,2.40
2019-03-10T06:31:43.935Z,3.07
2019-03-10T06:33:50.174Z,2.40
2019-03-10T06:35:56.186Z,2.10
2019-03-10T06:38:02.301Z,1.57
2019-03-10T06:40:09.567Z,2.17
2019-03-10T06:42:15.425Z,2.63
2019-03-10T06:44:21.579Z,1.60
2019-03-10T06:46:27.632Z,3.70
2019-03-10T06:48:33.700Z,1.70
2019-03-10T06:50:39.926Z,1.03
2019-03-10T06:52:45.997Z,3.70
2019-03-10T06:54:52.154Z,3.30
2019-03-10T06:56:58.205Z,2.50
2019-03-10T06:59:04.119Z,2.40
2019-03-10T07:01:10.233Z,1.53
2019-03-10T07:03:16.281Z,2.10
2019-03-10T07:05:22.639Z,2.30
2019-03-10T07:07:28.600Z,3.33
2019-03-10T07:09:34.531Z,5.00
2019-03-10T07:11:40.592Z,3.60
2019-03-10T07:13:46.651Z,1.83
2019-03-10T07:15:53.162Z,1.53
2019-03-10T07:17:59.363Z,1.60
2019-03-10T07:20:09.289Z,1.97
2019-03-10T07:22:15.492Z,1.67
2019-03-10T07:24:22.779Z,1.93
2019-03-10T07:26:28.830Z,1.40
2019-03-10T07:28:37.491Z,1.67
2019-03-10T07:30:54.153Z,1.40
2019-03-10T07:33:17.816Z,1.27
2019-03-10T07:35:28.489Z,1.70
2019-03-10T07:37:42.134Z,1.70
2019-03-10T07:39:49.869Z,1.60
2019-03-10T07:42:00.568Z,1.27
2019-03-10T07:44:08.191Z,1.73
2019-03-10T07:46:32.450Z,1.10
2019-03-10T07:48:46.180Z,2.77
2019-03-10T07:51:08.832Z,2.63
2019-03-10T07:53:31.769Z,1.60
2019-03-10T07:55:37.528Z,1.80
2019-03-10T07:57:46.265Z,2.03
2019-03-10T07:59:59.868Z,1.60
2019-03-10T08:02:24.071Z,1.47
2019-03-10T08:04:34.429Z,2.00
2019-03-10T08:06:42.109Z,1.83
2019-03-10T08:08:57.076Z,2.00
2019-03-10T08:11:05.325Z,1.63
2019-03-10T08:13:19.013Z,2.17
2019-03-10T08:15:41.570Z,1.70
2019-03-10T08:17:53.662Z,3.40
2019-03-10T08:20:11.995Z,2.10
2019-03-10T08:22:35.873Z,2.10
2019-03-10T08:24:41.843Z,1.83
2019-03-10T08:26:58.343Z,1.40
2019-03-10T08:29:19.546Z,2.13
2019-03-10T08:31:29.968Z,1.40
2019-03-10T08:33:37.288Z,2.30
2019-03-10T08:35:46.223Z,2.97
2019-03-10T08:38:02.594Z,1.70
2019-03-10T08:40:13.154Z,1.33
2019-03-10T08:42:27.000Z,1.80
2019-03-10T08:44:35.935Z,2.03
2019-03-10T08:46:49.462Z,1.27
2019-03-10T08:48:57.152Z,1.33
2019-03-10T08:51:05.198Z,1.63
2019-03-10T08:53:15.816Z,1.00
2019-03-10T08:55:29.660Z,1.37
2019-03-10T08:57:49.232Z,1.53
2019-03-10T09:00:10.472Z,2.00
2019-03-10T09:02:18.107Z,2.27
2019-03-10T09:04:28.686Z,1.77
2019-03-10T09:06:51.551Z,2.13
2019-03-10T09:09:04.873Z,2.10
2019-03-10T09:11:29.062Z,1.80
2019-03-10T09:13:46.904Z,2.80
2019-03-10T09:16:03.494Z,3.37
2019-03-10T09:18:27.446Z,1.97
2019-03-10T09:20:35.144Z,1.10
2019-03-10T09:22:45.392Z,1.73
2019-03-10T09:25:09.262Z,1.60
2019-03-10T09:27:22.808Z,1.97
2019-03-10T09:29:34.502Z,3.00
2019-03-10T09:31:54.474Z,2.07
2019-03-10T09:34:02.184Z,1.27
2019-03-10T09:36:14.264Z,1.83
2019-03-10T09:38:38.263Z,1.27
2019-03-10T09:41:04.388Z,1.87
2019-03-10T09:43:30.504Z,0.90
2019-03-10T09:45:54.291Z,1.50
2019-03-10T09:48:14.033Z,1.57
2019-03-10T09:50:37.814Z,1.97
2019-03-10T09:52:48.061Z,1.40
2019-03-10T09:55:13.972Z,1.20
2019-03-10T09:57:27.728Z,1.93
2019-03-10T09:59:38.382Z,2.47
2019-03-10T10:01:51.911Z,1.67
2019-03-10T10:04:16.320Z,2.10
2019-03-10T10:06:29.829Z,1.93
2019-03-10T10:08:39.833Z,2.10
2019-03-10T10:10:47.685Z,1.37
2019-03-10T10:12:55.385Z,0.80
2019-03-10T10:15:06.241Z,1.83
2019-03-10T10:17:31.334Z,1.93
2019-03-10T10:19:44.193Z,1.40
2019-03-10T10:22:07.833Z,1.77
2019-03-10T10:24:31.705Z,1.47
2019-03-10T10:26:45.753Z,1.80
2019-03-10T10:28:56.413Z,3.27
2019-03-10T10:31:22.313Z,2.20
2019-03-10T10:33:31.450Z,2.53
2019-03-10T10:35:49.477Z,1.57
2019-03-10T10:37:55.648Z,2.33
2019-03-10T10:40:16.349Z,6.93
2019-03-10T10:42:40.002Z,5.13
2019-03-10T10:44:47.801Z,6.80
2019-03-10T10:47:01.794Z,3.73
2019-03-10T10:49:09.977Z,1.70
2019-03-10T10:51:20.863Z,2.10
2019-03-10T10:53:34.863Z,7.17
2019-03-10T10:55:45.423Z,6.73
2019-03-10T10:58:02.563Z,4.90
2019-03-10T11:00:18.326Z,4.10
2019-03-10T11:02:42.605Z,4.57
2019-03-10T11:04:53.030Z,6.07
2019-03-10T11:06:59.053Z,4.40
2019-03-10T11:09:09.949Z,2.03
2019-03-10T11:11:17.893Z,3.80
2019-03-10T11:13:36.023Z,2.83
2019-03-10T11:15:43.754Z,6.70
2019-03-10T11:18:12.203Z,5.57
2019-03-10T11:20:36.472Z,7.73
2019-03-10T11:22:42.546Z,3.00
2019-03-10T11:25:05.644Z,1.57
2019-03-10T11:27:29.775Z,2.27
2019-03-10T11:29:41.883Z,2.47
2019-03-10T11:31:54.068Z,3.47
2019-03-10T11:34:02.064Z,3.17
2019-03-10T11:36:09.160Z,5.73
2019-03-10T11:38:33.781Z,2.00
2019-03-10T11:40:47.383Z,1.73
2019-03-10T11:42:55.273Z,2.20
2019-03-10T11:45:09.529Z,6.00
2019-03-10T11:47:17.322Z,5.57
2019-03-10T11:49:30.856Z,10.23
2019-03-10T11:51:37.111Z,5.93
2019-03-10T11:53:45.004Z,4.03
2019-03-10T11:55:53.852Z,2.47
2019-03-10T11:58:05.294Z,7.63
2019-03-10T12:00:19.453Z,7.17
2019-03-10T12:02:39.565Z,22.20
2019-03-10T12:05:03.943Z,3.50
2019-03-10T12:07:12.223Z,2.53
2019-03-10T12:09:24.339Z,2.50
2019-03-10T12:11:32.532Z,3.07
2019-03-10T12:13:38.833Z,2.00
2019-03-10T12:15:45.371Z,3.97
2019-03-10T12:17:51.913Z,2.50
2019-03-10T12:19:59.534Z,6.30
2019-03-10T12:22:06.188Z,20.33
2019-03-10T12:24:12.464Z,44.17
2019-03-10T12:26:19.722Z,39.43
2019-03-10T12:28:26.264Z,23.57
2019-03-10T12:30:32.874Z,7.83
2019-03-10T12:32:39.323Z,9.60
2019-03-10T12:34:45.791Z,4.40
2019-03-10T12:36:52.072Z,9.97
2019-03-10T12:38:58.439Z,11.83
2019-03-10T12:41:04.876Z,14.07
2019-03-10T12:43:11.313Z,6.93
2019-03-10T12:45:17.812Z,2.70
2019-03-10T12:47:26.143Z,8.37
2019-03-10T12:49:32.915Z,4.33
2019-03-10T12:51:40.589Z,3.03
2019-03-10T12:53:46.844Z,4.10
2019-03-10T12:55:53.073Z,6.17
2019-03-10T12:58:04.092Z,6.67
2019-03-10T13:00:18.438Z,101.77
2019-03-10T13:02:25.112Z,48.63
2019-03-10T13:04:35.850Z,27.37
2019-03-10T13:06:43.664Z,6.80
2019-03-10T13:08:53.112Z,5.80
2019-03-10T13:11:04.194Z,8.80
2019-03-10T13:13:10.613Z,19.17
2019-03-10T13:15:17.714Z,36.70
2019-03-10T13:17:25.846Z,6.70
2019-03-10T13:19:32.098Z,5.03
2019-03-10T13:21:40.020Z,9.10
2019-03-10T13:23:46.376Z,7.93
2019-03-10T13:25:53.057Z,7.47
2019-03-10T13:27:59.457Z,9.37
2019-03-10T13:30:10.110Z,55.63
2019-03-10T13:32:16.507Z,13.90
2019-03-10T13:34:22.869Z,69.60
2019-03-10T13:36:29.335Z,22.70
2019-03-10T13:38:35.787Z,7.37
2019-03-10T13:40:42.244Z,5.17
2019-03-10T13:42:48.843Z,3.20
2019-03-10T13:44:55.446Z,4.13
2019-03-10T13:47:02.853Z,5.73
2019-03-10T13:49:09.860Z,4.57
2019-03-10T13:51:17.927Z,8.23
2019-03-10T13:53:24.375Z,6.77
2019-03-10T13:55:31.005Z,4.90
2019-03-10T13:57:37.657Z,3.13
2019-03-10T13:59:44.035Z,4.63
2019-03-10T14:01:51.906Z,3.50
2019-03-10T14:04:00.072Z,2.87
2019-03-10T14:06:06.692Z,3.97
2019-03-10T14:08:13.365Z,6.37
2019-03-10T14:10:19.909Z,5.13
2019-03-10T14:12:26.561Z,5.17
2019-03-10T14:14:32.775Z,4.50
2019-03-10T14:16:39.231Z,4.33
2019-03-10T14:18:45.874Z,3.57
2019-03-10T14:20:52.370Z,4.30
2019-03-10T14:22:58.521Z,2.90
2019-03-10T14:25:05.834Z,5.87
2019-03-10T14:27:12.364Z,22.30
2019-03-10T14:29:20.407Z,23.83
2019-03-10T14:31:26.855Z,17.17
2019-03-10T14:33:33.325Z,36.03
2019-03-10T14:35:40.014Z,39.53
2019-03-10T14:37:46.591Z,24.07
2019-03-10T14:39:53.655Z,53.87
2019-03-10T14:42:00.089Z,7.93
2019-03-10T14:44:08.328Z,6.80
2019-03-10T14:46:14.790Z,7.83
2019-03-10T14:48:21.218Z,4.87
2019-03-10T14:50:27.941Z,3.43
2019-03-10T14:52:34.861Z,4.93
2019-03-10T14:54:41.656Z,5.67
2019-03-10T14:56:50.822Z,7.50
2019-03-10T14:59:02.400Z,7.90
2019-03-10T15:01:09.441Z,7.10
2019-03-10T15:03:17.421Z,4.90
2019-03-10T15:05:24.212Z,8.67
2019-03-10T15:07:30.568Z,10.60
2019-03-10T15:09:36.939Z,6.07
2019-03-10T15:11:44.745Z,27.47
2019-03-10T15:13:51.185Z,4.37
2019-03-10T15:15:57.874Z,5.70
2019-03-10T15:18:09.062Z,19.90
2019-03-10T15:20:17.474Z,44.63
2019-03-10T15:22:25.383Z,40.87
2019-03-10T15:24:33.304Z,5.27
2019-03-10T15:26:45.494Z,6.43
2019-03-10T15:28:50.709Z,5.23
2019-03-10T15:30:58.863Z,3.43
2019-03-10T15:33:06.608Z,3.30
2019-03-10T15:35:14.142Z,3.73
2019-03-10T15:37:20.679Z,5.80
2019-03-10T15:39:28.279Z,3.50
2019-03-10T15:41:34.502Z,4.20
2019-03-10T15:43:41.202Z,4.23
2019-03-10T15:45:49.487Z,3.00
2019-03-10T15:47:56.612Z,8.13
2019-03-10T15:50:05.801Z,5.13
2019-03-10T15:52:13.285Z,8.10
2019-03-10T15:54:21.603Z,5.73
2019-03-10T15:56:28.042Z,5.10
2019-03-10T15:58:36.242Z,8.20
2019-03-10T16:00:42.937Z,8.00
2019-03-10T16:02:49.323Z,3.90
2019-03-10T16:04:55.851Z,4.87
2019-03-10T16:07:02.452Z,4.13
2019-03-10T16:09:10.832Z,6.70
2019-03-10T16:11:17.599Z,4.60
2019-03-10T16:13:23.921Z,14.83
2019-03-10T16:15:34.229Z,27.63
2019-03-10T16:17:42.147Z,25.73
2019-03-10T16:19:48.998Z,60.80
2019-03-10T16:21:58.483Z,69.53
2019-03-10T16:24:08.083Z,30.53
2019-03-10T16:26:14.438Z,31.97
2019-03-10T16:28:20.813Z,15.07
2019-03-10T16:30:28.572Z,11.80
2019-03-10T16:32:34.951Z,12.17
2019-03-10T16:34:41.428Z,30.77
2019-03-10T16:36:48.404Z,59.57
2019-03-10T16:38:55.067Z,98.17
2019-03-10T16:41:01.741Z,110.37
2019-03-10T16:43:08.546Z,33.73
2019-03-10T16:45:23.536Z,30.53
2019-03-10T16:47:30.202Z,56.70
2019-03-10T16:49:36.682Z,55.00
2019-03-10T16:51:43.779Z,64.93
2019-03-10T16:53:50.257Z,39.77
2019-03-10T16:56:02.741Z,28.90
2019-03-10T16:58:07.082Z,11.77
2019-03-10T17:00:15.751Z,7.00
2019-03-10T17:02:23.885Z,6.43
2019-03-10T17:04:33.978Z,6.27
2019-03-10T17:06:44.106Z,3.97
2019-03-10T17:08:50.552Z,6.00
2019-03-10T17:10:56.993Z,5.60
2019-03-10T17:13:03.734Z,4.20
2019-03-10T17:15:17.679Z,3.67
2019-03-10T17:17:25.752Z,4.13
2019-03-10T17:19:34.450Z,7.40
2019-03-10T17:21:42.084Z,18.80
2019-03-10T17:23:48.895Z,16.17
2019-03-10T17:25:55.198Z,9.23
2019-03-10T17:28:01.966Z,14.27
2019-03-10T17:30:18.753Z,22.67
2019-03-10T17:32:30.157Z,26.60
2019-03-10T17:34:36.856Z,7.30
2019-03-10T17:36:44.398Z,7.70
2019-03-10T17:38:52.328Z,7.03
2019-03-10T17:40:58.902Z,8.20
2019-03-10T17:43:07.861Z,13.43
2019-03-10T17:45:27.478Z,11.37
2019-03-10T17:47:35.455Z,5.30
2019-03-10T17:49:42.084Z,5.43
2019-03-10T17:51:50.054Z,5.47
2019-03-10T17:53:56.811Z,5.80
2019-03-10T17:56:04.934Z,4.30
2019-03-10T17:58:11.485Z,4.83
2019-03-10T18:00:23.994Z,4.20
2019-03-10T18:02:30.654Z,6.10
2019-03-10T18:04:37.296Z,5.77
2019-03-10T18:06:43.874Z,8.67
2019-03-10T18:08:50.275Z,6.33
2019-03-10T18:10:56.824Z,5.27
2019-03-10T18:13:05.105Z,6.67
2019-03-10T18:15:15.704Z,12.60
2019-03-10T18:17:22.391Z,13.10
2019-03-10T18:19:31.615Z,10.23
2019-03-10T18:21:38.164Z,13.83
2019-03-10T18:23:47.932Z,13.90
2019-03-10T18:25:55.931Z,10.80
2019-03-10T18:28:06.373Z,14.50
2019-03-10T18:30:23.441Z,10.50
2019-03-10T18:32:31.663Z,4.17
2019-03-10T18:34:38.144Z,5.00
2019-03-10T18:36:53.504Z,14.17
2019-03-10T18:39:02.394Z,7.93
2019-03-10T18:41:10.875Z,6.33
2019-03-10T18:43:17.854Z,5.57
2019-03-10T18:45:24.604Z,5.93
2019-03-10T18:47:31.591Z,6.07
2019-03-10T18:49:38.098Z,8.33
2019-03-10T18:51:44.644Z,9.77
2019-03-10T18:53:53.053Z,12.80
2019-03-10T18:56:02.514Z,22.20
2019-03-10T18:58:13.825Z,38.53
2019-03-10T19:00:30.194Z,44.37
2019-03-10T19:02:41.519Z,28.97
2019-03-10T19:04:48.000Z,13.30
2019-03-10T19:06:54.736Z,8.40
2019-03-10T19:09:03.621Z,8.43
2019-03-10T19:11:12.031Z,5.43
2019-03-10T19:13:19.013Z,5.90
2019-03-10T19:15:30.162Z,5.30
2019-03-10T19:17:38.298Z,8.33
2019-03-10T19:19:46.001Z,8.10
2019-03-10T19:21:52.964Z,6.60
2019-03-10T19:24:00.781Z,5.80
2019-03-10T19:26:08.245Z,7.90
2019-03-10T19:28:16.212Z,6.23
2019-03-10T19:30:26.806Z,6.10
2019-03-10T19:32:33.550Z,5.13
2019-03-10T19:34:42.482Z,6.40
2019-03-10T19:36:57.106Z,6.43
2019-03-10T19:38:59.807Z,7.33
2019-03-10T19:41:08.216Z,7.83
2019-03-10T19:43:14.748Z,8.97
2019-03-10T19:45:25.163Z,6.83
2019-03-10T19:47:31.817Z,7.00
2019-03-10T19:49:39.918Z,11.03
2019-03-10T19:51:47.006Z,19.13
2019-03-10T19:53:53.557Z,12.57
2019-03-10T19:56:03.871Z,8.50
2019-03-10T19:58:10.272Z,18.80
2019-03-10T20:00:20.860Z,10.10
2019-03-10T20:02:32.263Z,14.50
2019-03-10T20:04:39.911Z,16.67
2019-03-10T20:06:46.398Z,10.47
2019-03-10T20:08:54.880Z,6.87
2019-03-10T20:11:01.520Z,7.70
2019-03-10T20:13:08.137Z,6.17
2019-03-10T20:15:25.040Z,5.43
2019-03-10T20:17:31.543Z,5.17
2019-03-10T20:19:39.599Z,5.00
2019-03-10T20:21:46.115Z,5.07
2019-03-10T20:23:54.282Z,6.27
2019-03-10T20:26:00.940Z,5.17
2019-03-10T20:28:09.277Z,9.43
2019-03-10T20:30:23.690Z,7.40
2019-03-10T20:32:31.687Z,10.33
2019-03-10T20:34:39.484Z,6.97
2019-03-10T20:36:48.746Z,9.20
2019-03-10T20:38:56.426Z,14.63
2019-03-10T20:41:04.318Z,17.23
2019-03-10T20:43:12.107Z,10.33
2019-03-10T20:45:18.760Z,11.40
2019-03-10T20:47:25.769Z,12.13
2019-03-10T20:49:32.397Z,10.47
2019-03-10T20:51:40.699Z,11.53
2019-03-10T20:53:47.308Z,10.30
2019-03-10T20:55:53.879Z,10.60
2019-03-10T20:58:01.076Z,7.33
2019-03-10T21:00:23.863Z,7.97
2019-03-10T21:02:31.682Z,6.93
2019-03-10T21:04:38.845Z,6.60
2019-03-10T21:06:46.554Z,4.50
2019-03-10T21:08:55.218Z,3.27
2019-03-10T21:11:02.186Z,4.70
2019-03-10T21:13:08.913Z,4.50
2019-03-10T21:15:21.527Z,3.33
2019-03-10T21:17:27.994Z,3.33
2019-03-10T21:19:34.602Z,2.20
2019-03-10T21:21:43.180Z,2.47
2019-03-10T21:23:55.463Z,1.97
2019-03-10T21:26:02.136Z,1.67
2019-03-10T21:28:08.785Z,1.80
2019-03-10T21:30:21.469Z,1.70
2019-03-10T21:32:27.900Z,1.60
2019-03-10T21:34:34.577Z,1.67
2019-03-10T21:36:43.599Z,1.30
2019-03-10T21:38:51.540Z,1.27
2019-03-10T21:40:59.093Z,1.17
2019-03-10T21:43:05.700Z,1.07
2019-03-10T21:45:12.651Z,1.73
2019-03-10T21:47:18.981Z,1.07
2019-03-10T21:49:25.424Z,1.00
2019-03-10T21:51:31.803Z,0.83
2019-03-10T21:53:38.284Z,1.10
2019-03-10T21:55:45.857Z,0.90
2019-03-10T21:58:12.910Z,1.27
2019-03-10T22:00:23.057Z,1.30
2019-03-10T22:02:41.457Z,0.90
2019-03-10T22:04:47.768Z,1.33
2019-03-10T22:06:55.468Z,1.03
2019-03-10T22:09:04.390Z,1.10
2019-03-10T22:11:11.146Z,1.23
2019-03-10T22:13:17.330Z,0.97
2019-03-10T22:15:23.583Z,1.13
2019-03-10T22:17:29.730Z,1.37
2019-03-10T22:19:35.783Z,2.70
2019-03-10T22:21:42.114Z,1.10
2019-03-10T22:23:58.896Z,0.93
2019-03-10T22:25:56.610Z,0.90
2019-03-10T22:28:02.679Z,1.43
2019-03-10T22:30:24.606Z,1.70
2019-03-10T22:32:30.761Z,1.20
2019-03-10T22:34:37.006Z,1.23
2019-03-10T22:36:43.691Z,1.70
2019-03-10T22:38:49.745Z,1.00
2019-03-10T22:40:56.006Z,1.10
2019-03-10T22:43:02.275Z,1.20
2019-03-10T22:45:15.690Z,1.00
2019-03-10T22:47:22.284Z,1.03
2019-03-10T22:49:28.522Z,1.00
2019-03-10T22:51:34.784Z,1.20
2019-03-10T22:53:40.831Z,1.23
2019-03-10T22:55:47.100Z,0.87
2019-03-10T22:57:57.657Z,1.33
2019-03-10T23:00:05.564Z,1.57
2019-03-10T23:02:13.240Z,1.60
2019-03-10T23:04:19.400Z,1.67
2019-03-10T23:06:25.753Z,1.57
2019-03-10T23:08:32.344Z,1.77
2019-03-10T23:10:38.607Z,2.13
2019-03-10T23:12:44.863Z,2.50
2019-03-10T23:14:51.104Z,2.10
2019-03-10T23:16:58.395Z,1.97
2019-03-10T23:19:04.868Z,2.33
2019-03-10T23:21:10.920Z,2.07
2019-03-10T23:23:17.065Z,2.20
2019-03-10T23:25:23.255Z,3.10
2019-03-10T23:27:29.583Z,2.73
2019-03-10T23:29:36.070Z,2.60
2019-03-10T23:31:42.326Z,2.53
2019-03-10T23:33:48.576Z,2.37
2019-03-10T23:35:55.658Z,2.67
2019-03-10T23:38:01.927Z,2.97
2019-03-10T23:40:14.322Z,3.47
2019-03-10T23:42:20.487Z,2.60
2019-03-10T23:44:26.637Z,2.87
2019-03-10T23:46:33.413Z,2.60
2019-03-10T23:48:39.577Z,3.20
2019-03-10T23:50:45.836Z,3.30
2019-03-10T23:52:51.994Z,3.00
2019-03-10T23:54:58.453Z,2.80
2019-03-10T23:57:05.760Z,3.57
2019-03-10T23:59:11.999Z,2.67
